createdAt,value
2022-08-22T00:00:56.036Z,20.12
2022-08-22T00:02:58.077Z,20.19
2022-08-22T00:03:08.205Z,20.49
2022-08-22T00:04:22.933Z,20.05
2022-08-22T00:07:52.539Z,19.79
2022-08-22T00:11:07.396Z,19.68
2022-08-22T00:14:09.215Z,19.66
2022-08-22T00:17:40.495Z,19.63
2022-08-22T00:21:11.725Z,19.64
2022-08-22T00:24:23.165Z,19.60
2022-08-22T00:27:37.908Z,19.56
2022-08-22T00:30:57.688Z,19.55
2022-08-22T00:34:06.034Z,19.57
2022-08-22T00:37:26.429Z,19.50
2022-08-22T00:40:30.865Z,19.38
2022-08-22T00:44:08.538Z,19.30
2022-08-22T00:47:36.321Z,19.26
2022-08-22T00:50:44.079Z,19.15
2022-08-22T00:54:06.945Z,19.05
2022-08-22T00:57:31.635Z,18.98
2022-08-22T01:00:43.613Z,18.91
2022-08-22T01:03:47.130Z,19.03
2022-08-22T01:07:18.437Z,18.99
2022-08-22T01:10:28.619Z,19.11
2022-08-22T01:14:02.505Z,19.23
2022-08-22T01:17:10.273Z,19.43
2022-08-22T01:20:43.615Z,19.42
2022-08-22T01:24:22.597Z,19.55
2022-08-22T01:27:31.876Z,19.61
2022-08-22T01:31:04.759Z,19.57
2022-08-22T01:34:44.192Z,19.54
2022-08-22T01:37:58.457Z,19.38
2022-08-22T01:41:17.189Z,19.16
2022-08-22T01:44:37.345Z,18.97
2022-08-22T01:48:00.837Z,18.84
2022-08-22T01:51:26.079Z,18.85
2022-08-22T01:54:36.002Z,18.78
2022-08-22T01:58:01.134Z,18.63
2022-08-22T02:01:16.695Z,18.66
2022-08-22T02:04:56.267Z,18.59
2022-08-22T02:08:40.570Z,18.41
2022-08-22T02:11:55.433Z,18.32
2022-08-22T02:15:08.090Z,18.33
2022-08-22T02:18:17.570Z,18.25
2022-08-22T02:21:31.029Z,18.06
2022-08-22T02:25:09.214Z,18.12
2022-08-22T02:28:19.956Z,18.01
2022-08-22T02:31:43.424Z,17.89
2022-08-22T02:35:00.457Z,17.88
2022-08-22T02:38:29.014Z,17.75
2022-08-22T02:41:55.651Z,17.73
2022-08-22T02:45:15.714Z,17.72
2022-08-22T02:48:40.883Z,17.62
2022-08-22T02:51:57.876Z,17.70
2022-08-22T02:55:20.062Z,17.68
2022-08-22T02:58:31.806Z,17.54
2022-08-22T03:01:38.449Z,17.54
2022-08-22T03:04:42.524Z,17.51
2022-08-22T03:07:51.142Z,17.37
2022-08-22T03:11:30.046Z,17.37
2022-08-22T03:14:44.780Z,17.28
2022-08-22T03:17:59.832Z,17.22
2022-08-22T03:21:20.595Z,17.37
2022-08-22T03:24:48.999Z,17.39
2022-08-22T03:28:00.322Z,17.30
2022-08-22T03:31:18.107Z,17.13
2022-08-22T03:34:27.175Z,16.87
2022-08-22T03:37:38.106Z,16.98
2022-08-22T03:41:00.479Z,16.89
2022-08-22T03:44:37.488Z,16.77
2022-08-22T03:48:17.852Z,16.83
2022-08-22T03:51:30.429Z,16.88
2022-08-22T03:54:43.949Z,16.61
2022-08-22T03:57:54.688Z,16.48
2022-08-22T04:01:37.925Z,16.41
2022-08-22T04:04:57.450Z,16.44
2022-08-22T04:08:14.536Z,16.47
2022-08-22T04:11:23.099Z,16.23
2022-08-22T04:14:54.687Z,16.39
2022-08-22T04:18:05.319Z,16.29
2022-08-22T04:21:16.351Z,16.26
2022-08-22T04:24:52.451Z,16.26
2022-08-22T04:28:13.438Z,16.15
2022-08-22T04:31:22.441Z,16.17
2022-08-22T04:34:41.877Z,16.20
2022-08-22T04:37:59.402Z,16.25
2022-08-22T04:41:13.593Z,16.21
2022-08-22T04:44:24.040Z,16.11
2022-08-22T04:47:54.008Z,16.34
2022-08-22T04:51:12.577Z,16.27
2022-08-22T04:54:32.737Z,16.31
2022-08-22T04:57:45.637Z,16.43
2022-08-22T05:01:09.315Z,16.50
2022-08-22T05:04:14.000Z,16.41
2022-08-22T05:07:24.155Z,16.55
2022-08-22T05:10:33.021Z,16.54
2022-08-22T05:13:47.351Z,16.61
2022-08-22T05:16:52.265Z,16.59
2022-08-22T05:19:57.317Z,16.51
2022-08-22T05:23:06.650Z,16.59
2022-08-22T05:26:21.779Z,16.55
2022-08-22T05:29:28.976Z,16.42
2022-08-22T05:32:39.341Z,16.60
2022-08-22T05:35:49.671Z,16.47
2022-08-22T05:38:58.778Z,16.41
2022-08-22T05:42:03.515Z,16.37
2022-08-22T05:45:12.175Z,16.56
2022-08-22T05:48:26.646Z,16.53
2022-08-22T05:51:45.271Z,16.40
2022-08-22T05:55:04.024Z,16.49
2022-08-22T05:58:31.089Z,16.59
2022-08-22T06:01:53.921Z,16.53
2022-08-22T06:05:03.390Z,16.44
2022-08-22T06:08:14.296Z,16.56
2022-08-22T06:11:23.407Z,16.61
2022-08-22T06:14:31.318Z,16.91
2022-08-22T06:17:42.757Z,16.89
2022-08-22T06:20:52.158Z,17.05
2022-08-22T06:24:00.267Z,17.12
2022-08-22T06:27:10.115Z,17.25
2022-08-22T06:30:14.591Z,17.26
2022-08-22T06:33:22.552Z,17.49
2022-08-22T06:36:32.712Z,17.64
2022-08-22T06:39:38.730Z,17.65
2022-08-22T06:42:44.456Z,17.77
2022-08-22T06:45:47.117Z,17.91
2022-08-22T06:48:49.871Z,17.97
2022-08-22T06:51:53.434Z,18.16
2022-08-22T06:55:02.815Z,18.29
2022-08-22T06:58:17.591Z,18.54
2022-08-22T07:01:28.122Z,18.71
2022-08-22T07:04:30.839Z,18.92
2022-08-22T07:07:33.037Z,19.08
2022-08-22T07:10:35.160Z,19.35
2022-08-22T07:13:41.860Z,19.58
2022-08-22T07:17:04.317Z,19.82
2022-08-22T07:20:11.041Z,19.97
2022-08-22T07:23:24.835Z,20.04
2022-08-22T07:26:51.490Z,20.55
2022-08-22T07:30:06.913Z,20.79
2022-08-22T07:33:39.784Z,21.03
2022-08-22T07:37:08.789Z,21.36
2022-08-22T07:40:20.403Z,21.48
2022-08-22T07:43:22.259Z,21.32
2022-08-22T07:46:28.968Z,21.07
2022-08-22T07:49:36.152Z,20.91
2022-08-22T07:52:44.316Z,20.85
2022-08-22T07:55:49.589Z,20.83
2022-08-22T07:59:13.216Z,20.85
2022-08-22T08:02:17.668Z,20.74
2022-08-22T08:05:24.153Z,20.73
2022-08-22T08:08:42.058Z,20.71
2022-08-22T08:11:45.251Z,21.15
2022-08-22T08:14:52.821Z,21.65
2022-08-22T08:18:00.577Z,22.11
2022-08-22T08:21:06.946Z,21.89
2022-08-22T08:24:14.558Z,22.65
2022-08-22T08:27:39.713Z,23.00
2022-08-22T08:30:48.284Z,22.80
2022-08-22T08:33:53.736Z,23.18
2022-08-22T08:37:02.738Z,23.55
2022-08-22T08:40:16.940Z,23.62
2022-08-22T08:43:51.224Z,23.90
2022-08-22T08:46:55.911Z,24.04
2022-08-22T08:50:35.679Z,23.93
2022-08-22T08:54:03.106Z,24.15
2022-08-22T08:57:27.180Z,24.22
2022-08-22T09:00:50.941Z,24.43
2022-08-22T09:04:04.914Z,24.96
2022-08-22T09:07:39.338Z,24.63
2022-08-22T09:11:09.622Z,24.87
2022-08-22T09:14:15.189Z,25.13
2022-08-22T09:17:35.581Z,25.72
2022-08-22T09:21:30.615Z,25.59
2022-08-22T09:24:48.931Z,25.70
2022-08-22T09:28:01.254Z,25.60
2022-08-22T09:31:59.694Z,26.34
2022-08-22T09:35:27.566Z,27.01
2022-08-22T09:38:51.601Z,26.21
2022-08-22T09:42:21.142Z,26.50
2022-08-22T09:45:34.246Z,27.00
2022-08-22T09:48:56.659Z,27.39
2022-08-22T09:52:15.128Z,26.71
2022-08-22T09:55:59.826Z,27.31
2022-08-22T09:59:22.610Z,26.85
2022-08-22T10:02:24.433Z,27.62
2022-08-22T10:05:44.072Z,26.95
2022-08-22T10:09:06.087Z,26.82
2022-08-22T10:12:16.092Z,27.34
2022-08-22T10:15:31.016Z,27.99
2022-08-22T10:19:07.104Z,27.97
2022-08-22T10:22:18.411Z,28.46
2022-08-22T10:25:32.407Z,29.03
2022-08-22T10:28:53.427Z,29.29
2022-08-22T10:32:10.743Z,28.82
2022-08-22T10:35:37.679Z,28.92
2022-08-22T10:38:50.035Z,28.83
2022-08-22T10:42:16.962Z,29.11
2022-08-22T10:45:35.419Z,28.92
2022-08-22T10:48:44.733Z,29.05
2022-08-22T10:52:00.042Z,29.04
2022-08-22T10:55:28.491Z,28.97
2022-08-22T10:58:36.472Z,28.96
2022-08-22T11:01:51.634Z,28.81
2022-08-22T11:05:14.103Z,28.67
2022-08-22T11:08:29.077Z,29.18
2022-08-22T11:12:03.047Z,28.94
2022-08-22T11:15:52.476Z,29.19
2022-08-22T11:19:32.302Z,29.78
2022-08-22T11:23:00.531Z,29.60
2022-08-22T11:26:33.463Z,30.33
2022-08-22T11:30:18.198Z,30.39
2022-08-22T11:33:46.981Z,30.03
2022-08-22T11:37:00.349Z,29.43
2022-08-22T11:40:26.919Z,29.43
2022-08-22T11:43:50.434Z,30.20
2022-08-22T11:46:58.031Z,30.44
2022-08-22T11:50:23.526Z,29.99
2022-08-22T11:53:32.374Z,29.57
2022-08-22T11:56:50.104Z,28.97
2022-08-22T12:00:25.139Z,29.12
2022-08-22T12:03:34.285Z,29.15
2022-08-22T12:06:56.184Z,29.82
2022-08-22T12:10:17.327Z,30.58
2022-08-22T12:13:41.585Z,30.96
2022-08-22T12:16:51.814Z,30.78
2022-08-22T12:20:16.382Z,31.00
2022-08-22T12:23:43.631Z,31.79
2022-08-22T12:27:06.491Z,31.33
2022-08-22T12:30:32.979Z,31.55
2022-08-22T12:33:41.000Z,31.99
2022-08-22T12:36:56.793Z,31.94
2022-08-22T12:40:18.822Z,31.67
2022-08-22T12:43:32.902Z,31.89
2022-08-22T12:47:01.445Z,32.62
2022-08-22T12:50:35.051Z,32.64
2022-08-22T12:54:21.150Z,32.48
2022-08-22T12:57:32.962Z,32.37
2022-08-22T13:00:43.861Z,32.33
2022-08-22T13:04:01.703Z,32.08
2022-08-22T13:07:10.073Z,32.12
2022-08-22T13:10:17.384Z,32.55
2022-08-22T13:13:56.523Z,31.64
2022-08-22T13:17:13.508Z,31.74
2022-08-22T13:20:43.611Z,31.84
2022-08-22T13:23:51.691Z,30.91
2022-08-22T13:26:57.992Z,31.68
2022-08-22T13:30:05.812Z,31.64
2022-08-22T13:33:21.650Z,32.04
2022-08-22T13:36:24.200Z,31.19
2022-08-22T13:39:42.585Z,31.78
2022-08-22T13:42:54.036Z,32.70
2022-08-22T13:46:02.571Z,31.55
2022-08-22T13:49:12.589Z,31.47
2022-08-22T13:52:32.255Z,31.86
2022-08-22T13:55:49.243Z,32.50
2022-08-22T13:58:57.614Z,32.90
2022-08-22T14:02:34.361Z,32.95
2022-08-22T14:05:48.302Z,32.84
2022-08-22T14:09:03.058Z,33.00
2022-08-22T14:12:24.424Z,33.11
2022-08-22T14:15:44.634Z,33.13
2022-08-22T14:18:53.895Z,33.98
2022-08-22T14:22:00.559Z,33.43
2022-08-22T14:25:17.034Z,32.48
2022-08-22T14:28:32.502Z,33.12
2022-08-22T14:31:35.342Z,33.04
2022-08-22T14:34:42.618Z,33.33
2022-08-22T14:37:51.939Z,32.78
2022-08-22T14:41:00.749Z,33.10
2022-08-22T14:44:33.116Z,33.17
2022-08-22T14:48:09.945Z,33.50
2022-08-22T14:51:24.165Z,33.58
2022-08-22T14:54:28.886Z,32.99
2022-08-22T14:57:36.184Z,33.03
2022-08-22T15:00:42.312Z,33.98
2022-08-22T15:03:59.491Z,33.31
2022-08-22T15:07:02.458Z,32.89
2022-08-22T15:10:31.831Z,32.88
2022-08-22T15:13:40.407Z,33.02
2022-08-22T15:16:57.725Z,33.34
2022-08-22T15:20:11.730Z,33.38
2022-08-22T15:23:23.609Z,32.93
2022-08-22T15:26:58.041Z,32.77
2022-08-22T15:30:44.494Z,32.96
2022-08-22T15:33:48.534Z,32.59
2022-08-22T15:37:25.118Z,32.52
2022-08-22T15:40:35.919Z,32.52
2022-08-22T15:43:49.339Z,32.22
2022-08-22T15:58:24.025Z,31.87
2022-08-22T16:01:38.347Z,31.67
2022-08-22T16:05:12.786Z,31.70
2022-08-22T16:08:22.481Z,31.78
2022-08-22T16:11:38.649Z,31.91
2022-08-22T16:14:41.714Z,32.08
2022-08-22T16:22:57.768Z,31.72
2022-08-22T16:25:59.476Z,31.74
2022-08-22T16:29:04.223Z,31.85
2022-08-22T16:32:10.489Z,31.73
2022-08-22T16:35:12.229Z,31.12
2022-08-22T16:39:04.254Z,31.26
2022-08-22T16:42:13.297Z,31.42
2022-08-22T16:45:17.682Z,31.58
2022-08-22T16:48:37.471Z,31.12
2022-08-22T16:52:27.951Z,30.71
2022-08-22T16:55:29.804Z,30.34
2022-08-22T16:58:57.750Z,30.26
2022-08-22T17:02:40.997Z,30.38
2022-08-22T17:05:45.639Z,29.97
2022-08-22T17:09:00.129Z,29.79
2022-08-22T17:12:23.946Z,29.91
2022-08-22T17:15:52.957Z,29.83
2022-08-22T17:19:05.838Z,29.60
2022-08-22T17:22:45.975Z,29.36
2022-08-22T17:26:00.090Z,29.38
2022-08-22T17:29:24.443Z,29.33
2022-08-22T17:32:34.917Z,29.27
2022-08-22T17:36:27.190Z,29.12
2022-08-22T17:39:56.414Z,29.16
2022-08-22T17:43:16.161Z,29.15
2022-08-22T17:46:36.380Z,28.86
2022-08-22T17:49:41.542Z,28.82
2022-08-22T17:52:49.348Z,28.75
2022-08-22T17:56:02.354Z,28.49
2022-08-22T17:59:56.598Z,28.14
2022-08-22T18:03:15.499Z,27.69
2022-08-22T18:06:41.105Z,27.35
2022-08-22T18:10:00.548Z,27.23
2022-08-22T18:13:20.696Z,27.24
2022-08-22T18:16:31.277Z,26.99
2022-08-22T18:19:50.118Z,26.65
2022-08-22T18:22:56.892Z,26.45
2022-08-22T18:26:27.042Z,26.27
2022-08-22T18:29:42.510Z,25.96
2022-08-22T18:32:50.034Z,25.94
2022-08-22T18:36:09.378Z,25.65
2022-08-22T18:39:25.334Z,25.42
2022-08-22T18:42:46.209Z,25.32
2022-08-22T18:45:48.313Z,25.19
2022-08-22T18:49:14.030Z,25.01
2022-08-22T18:52:16.064Z,24.87
2022-08-22T18:55:25.334Z,24.73
2022-08-22T18:58:58.935Z,24.64
2022-08-22T19:02:40.297Z,24.61
2022-08-22T19:06:00.538Z,24.55
2022-08-22T19:09:32.142Z,24.44
2022-08-22T19:12:59.900Z,24.44
2022-08-22T19:16:39.760Z,24.37
2022-08-22T19:20:21.705Z,24.29
2022-08-22T19:23:33.069Z,24.10
2022-08-22T19:26:39.641Z,24.08
2022-08-22T19:29:41.622Z,23.97
2022-08-22T19:32:44.650Z,24.04
2022-08-22T19:35:49.443Z,23.97
2022-08-22T19:39:08.926Z,23.96
2022-08-22T19:42:24.440Z,23.88
2022-08-22T19:45:31.441Z,23.82
2022-08-22T19:48:49.261Z,23.89
2022-08-22T19:52:12.017Z,23.85
2022-08-22T19:55:28.738Z,23.84
2022-08-22T19:58:55.660Z,23.84
2022-08-22T20:02:16.414Z,23.78
2022-08-22T20:05:28.877Z,23.73
2022-08-22T20:09:01.584Z,23.49
2022-08-22T20:12:15.242Z,23.35
2022-08-22T20:15:24.105Z,23.29
2022-08-22T20:19:00.218Z,23.27
2022-08-22T20:22:30.422Z,23.17
2022-08-22T20:25:47.661Z,23.12
2022-08-22T20:28:56.380Z,22.88
2022-08-22T20:31:59.135Z,22.90
2022-08-22T20:35:03.387Z,22.80
2022-08-22T20:38:15.518Z,22.84
2022-08-22T20:41:30.587Z,22.84
2022-08-22T20:44:44.820Z,23.12
2022-08-22T20:47:55.713Z,23.05
2022-08-22T20:51:04.770Z,23.10
2022-08-22T20:54:17.675Z,23.01
2022-08-22T20:57:20.016Z,23.06
2022-08-22T21:00:26.032Z,22.97
2022-08-22T21:03:43.049Z,22.98
2022-08-22T21:06:50.742Z,22.80
2022-08-22T21:10:23.643Z,22.87
2022-08-22T21:13:35.828Z,22.84
2022-08-22T21:16:38.847Z,22.85
2022-08-22T21:19:40.567Z,22.78
2022-08-22T21:22:42.614Z,22.69
2022-08-22T21:25:58.759Z,22.74
2022-08-22T21:29:03.066Z,22.64
2022-08-22T21:32:37.140Z,22.58
2022-08-22T21:35:39.986Z,22.60
2022-08-22T21:38:54.393Z,22.62
2022-08-22T21:41:59.087Z,22.69
2022-08-22T21:45:06.638Z,22.85
2022-08-22T21:48:33.435Z,22.78
2022-08-22T21:51:44.601Z,22.77
2022-08-22T21:54:46.359Z,22.90
2022-08-22T21:58:05.776Z,22.85
2022-08-22T22:01:31.908Z,22.86
2022-08-22T22:04:34.595Z,22.83
2022-08-22T22:07:43.934Z,22.80
2022-08-22T22:10:48.831Z,22.82
2022-08-22T22:13:51.120Z,22.91
2022-08-22T22:16:53.151Z,22.90
2022-08-22T22:19:55.257Z,22.80
2022-08-22T22:22:57.051Z,22.66
2022-08-22T22:26:03.411Z,22.62
2022-08-22T22:29:05.800Z,22.66
2022-08-22T22:32:10.952Z,22.74
2022-08-22T22:35:13.698Z,22.74
2022-08-22T22:38:19.389Z,22.78
2022-08-22T22:41:25.794Z,22.60
2022-08-22T22:44:28.364Z,22.75
2022-08-22T22:47:32.590Z,22.74
2022-08-22T22:50:38.133Z,22.76
2022-08-22T22:53:42.906Z,22.87
2022-08-22T22:56:47.763Z,22.98
2022-08-22T22:59:49.928Z,22.59
2022-08-22T23:02:52.895Z,22.91
2022-08-22T23:05:54.567Z,22.78
2022-08-22T23:08:57.011Z,22.89
2022-08-22T23:12:00.552Z,22.98
2022-08-22T23:15:05.949Z,23.02
2022-08-22T23:18:08.469Z,23.04
2022-08-22T23:21:12.907Z,23.05
2022-08-22T23:24:15.162Z,22.06
2022-08-22T23:27:17.035Z,21.08
2022-08-22T23:30:18.943Z,19.80
2022-08-22T23:33:20.685Z,20.03
2022-08-22T23:36:24.210Z,20.38
2022-08-22T23:39:28.071Z,20.48
2022-08-22T23:42:29.873Z,20.38
2022-08-22T23:45:31.723Z,20.35
2022-08-22T23:48:33.562Z,20.35
2022-08-22T23:51:35.790Z,20.26
2022-08-22T23:54:37.685Z,20.20
2022-08-22T23:57:39.569Z,20.12
